Kota Taipei, Taiwan

06:00 AM CST on September 30, 2016 (GMT +0800)
ITAIPEIT2 | | Change Station

Elev 30 ft 25.03 °N, 121.53 °E | Updated 42 seconds ago

Scattered Clouds
Mendung Tidak Merata
79.9 °F
Feels Like 84 °F
N
0.0
Angin Variable Angin from Dari Selatan ke Baratdaya
Gusts 1.0 mph

Siang Ini
High -- | Low -- °F
--% Chance of Precip.
Yesterday
High -- | Low -- °F
Precip. -- Inch
Tekanan 29.77 Inch
Jarak Pandang 3.1 Mil
Awan Few 1200 ft
Mendung Tidak Merata 6000 ft
Ideks Panas 84 °F
Titik Embun 74 °F
Kelembaban 81%
Rainfall 0.00 Inch
Snow Depth Not available.
5:45 AM 5:41 PM
Waning Crescent, 1% visible
METAR RCTP 292130Z 16004KT 110V230 5000 BR FEW012 SCT060 26/25 Q1008 NOSIG RMK A2979
Tekanan 29.77 Inch
Jarak Pandang 3.1 Mil
Awan Few 1200 ft
Mendung Tidak Merata 6000 ft
Ideks Panas 84 °F
Titik Embun 74 °F
Kelembaban 81%
Rainfall 0.00 Inch
Snow Depth Not available.
5:45 AM 5:41 PM
Waning Crescent, 1% visible
METAR RCTP 292130Z 16004KT 110V230 5000 BR FEW012 SCT060 26/25 Q1008 NOSIG RMK A2979

10-Day Weather Forecast

No radar image for this location.
×

Almanac

Astronomi

Sep. 30, 2016 Rise Set
Actual Time
Civil Twilight
Nautical Twilight
Astronomical Twilight
Moon
Length Of Visible Light
Lama Satu Hari
Tomorrow will be .
, % of the Moon is Illuminated

Today's Extremes

Country Highs Country Lows

Community

WunderPhotos

Upload Photos

1,942,584 photos uploaded!

WunderBlog® & News

Nearby

Air Quality

  Air Quality AQ Index Pollutant
Not available.

Snow Depth

Station Depth Elevation

Earthquake Activity

City Distance Mag. Time & Date
Minimum magnitude displayed is 2.5.

Coastal Water Temperatures

Lokasi Temperatur

Stations

Nearby Weather Stations

Station Location Temp Angin Dingin Titik Embun Kelembaban Angin Precip. Elev Telah Diperbaharui Type